sensor_id;sensor_type;location;lat;lon;timestamp;P1;durP1;ratioP1;P2;durP2;ratioP2
49572;SDS011;35476;52.466;13.364;2023-02-15T00:00:52;39.80;;;24.15;;
49572;SDS011;35476;52.466;13.364;2023-02-15T00:03:20;47.05;;;23.77;;
49572;SDS011;35476;52.466;13.364;2023-02-15T00:05:45;44.50;;;23.15;;
49572;SDS011;35476;52.466;13.364;2023-02-15T00:08:10;39.77;;;22.83;;
49572;SDS011;35476;52.466;13.364;2023-02-15T00:10:35;38.55;;;23.58;;
49572;SDS011;35476;52.466;13.364;2023-02-15T00:13:01;37.20;;;22.70;;
49572;SDS011;35476;52.466;13.364;2023-02-15T00:15:26;36.60;;;22.93;;
49572;SDS011;35476;52.466;13.364;2023-02-15T00:17:51;44.03;;;22.60;;
49572;SDS011;35476;52.466;13.364;2023-02-15T00:20:16;49.77;;;25.43;;
49572;SDS011;35476;52.466;13.364;2023-02-15T00:22:43;45.03;;;24.10;;
49572;SDS011;35476;52.466;13.364;2023-02-15T00:25:08;53.70;;;26.23;;
49572;SDS011;35476;52.466;13.364;2023-02-15T00:27:33;49.33;;;24.83;;
49572;SDS011;35476;52.466;13.364;2023-02-15T00:29:59;49.15;;;24.25;;
49572;SDS011;35476;52.466;13.364;2023-02-15T00:32:24;47.17;;;23.20;;
49572;SDS011;35476;52.466;13.364;2023-02-15T00:34:49;49.88;;;24.05;;
49572;SDS011;35476;52.466;13.364;2023-02-15T00:37:14;50.35;;;25.42;;
49572;SDS011;35476;52.466;13.364;2023-02-15T00:39:40;47.25;;;24.75;;
49572;SDS011;35476;52.466;13.364;2023-02-15T00:42:05;43.90;;;24.33;;
49572;SDS011;35476;52.466;13.364;2023-02-15T00:44:30;46.35;;;23.80;;
49572;SDS011;35476;52.466;13.364;2023-02-15T00:46:55;41.47;;;22.73;;
49572;SDS011;35476;52.466;13.364;2023-02-15T00:49:20;47.20;;;24.60;;
49572;SDS011;35476;52.466;13.364;2023-02-15T00:51:46;45.17;;;24.08;;
49572;SDS011;35476;52.466;13.364;2023-02-15T00:54:11;49.47;;;25.85;;
49572;SDS011;35476;52.466;13.364;2023-02-15T00:56:36;55.17;;;25.13;;
49572;SDS011;35476;52.466;13.364;2023-02-15T00:59:01;44.22;;;23.33;;
49572;SDS011;35476;52.466;13.364;2023-02-15T01:01:27;38.17;;;22.10;;
49572;SDS011;35476;52.466;13.364;2023-02-15T01:03:52;40.20;;;20.83;;
49572;SDS011;35476;52.466;13.364;2023-02-15T01:06:17;44.08;;;23.85;;
49572;SDS011;35476;52.466;13.364;2023-02-15T01:08:43;41.40;;;23.98;;
49572;SDS011;35476;52.466;13.364;2023-02-15T01:11:10;37.75;;;21.80;;
49572;SDS011;35476;52.466;13.364;2023-02-15T01:13:36;50.03;;;24.58;;
49572;SDS011;35476;52.466;13.364;2023-02-15T01:16:02;49.42;;;23.65;;
49572;SDS011;35476;52.466;13.364;2023-02-15T01:18:27;44.47;;;23.00;;
49572;SDS011;35476;52.466;13.364;2023-02-15T01:20:53;40.22;;;22.60;;
49572;SDS011;35476;52.466;13.364;2023-02-15T01:23:18;48.95;;;25.42;;
49572;SDS011;35476;52.466;13.364;2023-02-15T01:25:43;57.13;;;27.45;;
49572;SDS011;35476;52.466;13.364;2023-02-15T01:28:08;51.78;;;23.35;;
49572;SDS011;35476;52.466;13.364;2023-02-15T01:30:34;51.53;;;27.55;;
49572;SDS011;35476;52.466;13.364;2023-02-15T01:32:59;48.65;;;25.77;;
49572;SDS011;35476;52.466;13.364;2023-02-15T01:35:25;48.47;;;24.95;;
49572;SDS011;35476;52.466;13.364;2023-02-15T01:37:50;49.08;;;26.95;;
49572;SDS011;35476;52.466;13.364;2023-02-15T01:40:16;53.50;;;27.03;;
49572;SDS011;35476;52.466;13.364;2023-02-15T01:42:42;50.78;;;24.92;;
49572;SDS011;35476;52.466;13.364;2023-02-15T01:47:45;51.83;;;25.50;;
49572;SDS011;35476;52.466;13.364;2023-02-15T01:55:17;52.13;;;25.67;;
49572;SDS011;35476;52.466;13.364;2023-02-15T01:57:43;55.80;;;28.67;;
49572;SDS011;35476;52.466;13.364;2023-02-15T02:00:08;51.65;;;26.88;;
49572;SDS011;35476;52.466;13.364;2023-02-15T02:02:34;51.70;;;26.35;;
49572;SDS011;35476;52.466;13.364;2023-02-15T02:05:00;52.97;;;27.20;;
49572;SDS011;35476;52.466;13.364;2023-02-15T02:07:28;43.85;;;23.60;;
49572;SDS011;35476;52.466;13.364;2023-02-15T02:09:54;51.30;;;26.67;;
49572;SDS011;35476;52.466;13.364;2023-02-15T02:12:19;47.10;;;23.65;;
49572;SDS011;35476;52.466;13.364;2023-02-15T02:14:46;60.05;;;27.83;;
49572;SDS011;35476;52.466;13.364;2023-02-15T02:20:26;69.47;;;32.95;;
49572;SDS011;35476;52.466;13.364;2023-02-15T02:22:41;78.18;;;34.30;;
49572;SDS011;35476;52.466;13.364;2023-02-15T02:25:38;83.50;;;36.40;;
49572;SDS011;35476;52.466;13.364;2023-02-15T02:31:00;94.90;;;40.17;;
49572;SDS011;35476;52.466;13.364;2023-02-15T02:36:20;77.43;;;37.05;;
49572;SDS011;35476;52.466;13.364;2023-02-15T02:41:14;62.93;;;32.87;;
49572;SDS011;35476;52.466;13.364;2023-02-15T02:43:48;65.18;;;32.33;;
49572;SDS011;35476;52.466;13.364;2023-02-15T02:46:24;73.30;;;34.38;;
49572;SDS011;35476;52.466;13.364;2023-02-15T02:48:51;89.70;;;40.58;;
49572;SDS011;35476;52.466;13.364;2023-02-15T02:51:17;101.20;;;42.72;;
49572;SDS011;35476;52.466;13.364;2023-02-15T02:53:47;98.18;;;44.42;;
49572;SDS011;35476;52.466;13.364;2023-02-15T02:56:27;121.00;;;49.90;;
49572;SDS011;35476;52.466;13.364;2023-02-15T02:58:55;113.97;;;46.88;;
49572;SDS011;35476;52.466;13.364;2023-02-15T03:04:07;121.85;;;48.33;;
49572;SDS011;35476;52.466;13.364;2023-02-15T03:06:48;115.95;;;49.80;;
49572;SDS011;35476;52.466;13.364;2023-02-15T03:09:20;104.05;;;46.38;;
49572;SDS011;35476;52.466;13.364;2023-02-15T03:11:47;103.65;;;44.20;;
49572;SDS011;35476;52.466;13.364;2023-02-15T03:14:13;101.43;;;44.33;;
49572;SDS011;35476;52.466;13.364;2023-02-15T03:16:39;100.20;;;43.75;;
49572;SDS011;35476;52.466;13.364;2023-02-15T03:19:09;104.97;;;49.55;;
49572;SDS011;35476;52.466;13.364;2023-02-15T03:21:40;91.03;;;45.03;;
49572;SDS011;35476;52.466;13.364;2023-02-15T03:24:10;94.28;;;43.65;;
49572;SDS011;35476;52.466;13.364;2023-02-15T03:26:37;91.45;;;39.83;;
49572;SDS011;35476;52.466;13.364;2023-02-15T03:29:03;87.60;;;42.85;;
49572;SDS011;35476;52.466;13.364;2023-02-15T03:31:31;89.25;;;42.03;;
49572;SDS011;35476;52.466;13.364;2023-02-15T03:34:02;89.95;;;41.58;;
49572;SDS011;35476;52.466;13.364;2023-02-15T03:36:29;100.35;;;43.10;;
49572;SDS011;35476;52.466;13.364;2023-02-15T03:44:20;93.95;;;43.55;;
49572;SDS011;35476;52.466;13.364;2023-02-15T03:46:50;84.75;;;41.17;;
49572;SDS011;35476;52.466;13.364;2023-02-15T03:49:19;84.05;;;40.95;;
49572;SDS011;35476;52.466;13.364;2023-02-15T03:51:46;95.93;;;44.40;;
49572;SDS011;35476;52.466;13.364;2023-02-15T03:54:15;76.63;;;38.75;;
49572;SDS011;35476;52.466;13.364;2023-02-15T03:57:04;82.18;;;39.42;;
49572;SDS011;35476;52.466;13.364;2023-02-15T03:59:48;94.13;;;41.90;;
49572;SDS011;35476;52.466;13.364;2023-02-15T04:05:16;94.40;;;39.53;;
49572;SDS011;35476;52.466;13.364;2023-02-15T04:07:41;102.90;;;45.50;;
49572;SDS011;35476;52.466;13.364;2023-02-15T04:10:07;94.63;;;42.37;;
49572;SDS011;35476;52.466;13.364;2023-02-15T04:12:52;93.40;;;40.00;;
49572;SDS011;35476;52.466;13.364;2023-02-15T04:15:17;104.53;;;44.80;;
49572;SDS011;35476;52.466;13.364;2023-02-15T04:18:02;108.00;;;43.25;;
49572;SDS011;35476;52.466;13.364;2023-02-15T04:20:27;98.07;;;40.85;;
49572;SDS011;35476;52.466;13.364;2023-02-15T04:23:11;96.32;;;40.13;;
49572;SDS011;35476;52.466;13.364;2023-02-15T04:25:55;84.10;;;40.40;;
49572;SDS011;35476;52.466;13.364;2023-02-15T04:28:20;84.17;;;40.53;;
49572;SDS011;35476;52.466;13.364;2023-02-15T04:30:46;104.72;;;42.65;;
49572;SDS011;35476;52.466;13.364;2023-02-15T04:33:11;96.53;;;43.85;;
49572;SDS011;35476;52.466;13.364;2023-02-15T04:35:36;84.30;;;37.55;;
49572;SDS011;35476;52.466;13.364;2023-02-15T04:38:01;98.50;;;42.47;;
49572;SDS011;35476;52.466;13.364;2023-02-15T04:40:27;87.15;;;39.42;;
49572;SDS011;35476;52.466;13.364;2023-02-15T04:42:52;82.57;;;39.35;;
49572;SDS011;35476;52.466;13.364;2023-02-15T04:45:17;85.28;;;40.78;;
49572;SDS011;35476;52.466;13.364;2023-02-15T04:47:43;89.63;;;38.38;;
49572;SDS011;35476;52.466;13.364;2023-02-15T04:50:08;94.93;;;40.72;;
49572;SDS011;35476;52.466;13.364;2023-02-15T04:52:33;89.10;;;39.88;;
49572;SDS011;35476;52.466;13.364;2023-02-15T04:54:58;94.10;;;41.80;;
49572;SDS011;35476;52.466;13.364;2023-02-15T04:57:24;96.63;;;40.77;;
49572;SDS011;35476;52.466;13.364;2023-02-15T04:59:49;94.95;;;39.45;;
49572;SDS011;35476;52.466;13.364;2023-02-15T05:02:14;96.72;;;43.53;;
49572;SDS011;35476;52.466;13.364;2023-02-15T05:04:39;89.47;;;39.65;;
49572;SDS011;35476;52.466;13.364;2023-02-15T05:07:04;91.90;;;41.38;;
49572;SDS011;35476;52.466;13.364;2023-02-15T05:09:30;87.60;;;42.30;;
49572;SDS011;35476;52.466;13.364;2023-02-15T05:11:55;91.40;;;39.58;;
49572;SDS011;35476;52.466;13.364;2023-02-15T05:14:20;91.70;;;38.93;;
49572;SDS011;35476;52.466;13.364;2023-02-15T05:16:45;89.05;;;39.92;;
49572;SDS011;35476;52.466;13.364;2023-02-15T05:19:11;88.07;;;40.20;;
49572;SDS011;35476;52.466;13.364;2023-02-15T05:21:36;97.57;;;43.85;;
49572;SDS011;35476;52.466;13.364;2023-02-15T05:24:01;102.90;;;42.42;;
49572;SDS011;35476;52.466;13.364;2023-02-15T05:26:46;97.97;;;40.95;;
49572;SDS011;35476;52.466;13.364;2023-02-15T05:29:30;92.88;;;40.63;;
49572;SDS011;35476;52.466;13.364;2023-02-15T05:31:55;95.23;;;42.93;;
49572;SDS011;35476;52.466;13.364;2023-02-15T05:34:21;107.43;;;46.25;;
49572;SDS011;35476;52.466;13.364;2023-02-15T05:36:46;106.90;;;43.23;;
49572;SDS011;35476;52.466;13.364;2023-02-15T05:39:11;104.67;;;44.10;;
49572;SDS011;35476;52.466;13.364;2023-02-15T05:41:36;101.27;;;43.67;;
49572;SDS011;35476;52.466;13.364;2023-02-15T05:44:01;110.10;;;43.80;;
49572;SDS011;35476;52.466;13.364;2023-02-15T05:46:27;99.25;;;41.50;;
49572;SDS011;35476;52.466;13.364;2023-02-15T05:48:52;98.90;;;39.87;;
49572;SDS011;35476;52.466;13.364;2023-02-15T05:51:17;102.63;;;43.90;;
49572;SDS011;35476;52.466;13.364;2023-02-15T05:53:42;101.33;;;39.97;;
49572;SDS011;35476;52.466;13.364;2023-02-15T05:56:08;113.73;;;44.80;;
49572;SDS011;35476;52.466;13.364;2023-02-15T05:58:34;109.30;;;42.53;;
49572;SDS011;35476;52.466;13.364;2023-02-15T06:01:06;123.15;;;42.25;;
49572;SDS011;35476;52.466;13.364;2023-02-15T06:03:32;116.82;;;45.53;;
49572;SDS011;35476;52.466;13.364;2023-02-15T06:05:57;103.75;;;41.72;;
49572;SDS011;35476;52.466;13.364;2023-02-15T06:08:22;111.73;;;43.50;;
49572;SDS011;35476;52.466;13.364;2023-02-15T06:10:47;128.30;;;41.87;;
49572;SDS011;35476;52.466;13.364;2023-02-15T06:13:13;138.18;;;42.05;;
49572;SDS011;35476;52.466;13.364;2023-02-15T06:15:38;130.88;;;42.03;;
49572;SDS011;35476;52.466;13.364;2023-02-15T06:18:03;119.33;;;40.33;;
49572;SDS011;35476;52.466;13.364;2023-02-15T06:20:28;107.38;;;44.00;;
49572;SDS011;35476;52.466;13.364;2023-02-15T06:22:53;97.20;;;38.20;;
49572;SDS011;35476;52.466;13.364;2023-02-15T06:25:19;126.93;;;46.53;;
49572;SDS011;35476;52.466;13.364;2023-02-15T06:27:44;117.17;;;39.97;;
49572;SDS011;35476;52.466;13.364;2023-02-15T06:30:10;136.83;;;39.10;;
49572;SDS011;35476;52.466;13.364;2023-02-15T06:32:35;108.22;;;38.78;;
49572;SDS011;35476;52.466;13.364;2023-02-15T06:35:00;101.95;;;42.00;;
49572;SDS011;35476;52.466;13.364;2023-02-15T06:37:26;144.23;;;43.17;;
49572;SDS011;35476;52.466;13.364;2023-02-15T06:39:51;94.53;;;39.65;;
49572;SDS011;35476;52.466;13.364;2023-02-15T06:42:16;109.60;;;41.95;;
49572;SDS011;35476;52.466;13.364;2023-02-15T06:44:43;118.40;;;39.25;;
49572;SDS011;35476;52.466;13.364;2023-02-15T06:47:08;104.75;;;41.47;;
49572;SDS011;35476;52.466;13.364;2023-02-15T06:49:33;116.00;;;40.65;;
49572;SDS011;35476;52.466;13.364;2023-02-15T06:51:58;125.67;;;38.67;;
49572;SDS011;35476;52.466;13.364;2023-02-15T06:54:24;124.25;;;37.50;;
49572;SDS011;35476;52.466;13.364;2023-02-15T06:56:49;121.07;;;39.17;;
49572;SDS011;35476;52.466;13.364;2023-02-15T06:59:14;155.13;;;38.67;;
49572;SDS011;35476;52.466;13.364;2023-02-15T07:01:39;131.67;;;41.17;;
49572;SDS011;35476;52.466;13.364;2023-02-15T07:04:04;149.60;;;42.37;;
49572;SDS011;35476;52.466;13.364;2023-02-15T07:06:33;144.55;;;37.92;;
49572;SDS011;35476;52.466;13.364;2023-02-15T07:08:58;116.53;;;35.00;;
49572;SDS011;35476;52.466;13.364;2023-02-15T07:11:23;85.30;;;37.38;;
49572;SDS011;35476;52.466;13.364;2023-02-15T07:14:07;117.20;;;34.72;;
49572;SDS011;35476;52.466;13.364;2023-02-15T07:16:33;113.20;;;34.23;;
49572;SDS011;35476;52.466;13.364;2023-02-15T07:18:58;123.40;;;41.05;;
49572;SDS011;35476;52.466;13.364;2023-02-15T07:21:23;101.77;;;35.87;;
49572;SDS011;35476;52.466;13.364;2023-02-15T07:23:49;98.65;;;34.33;;
49572;SDS011;35476;52.466;13.364;2023-02-15T07:26:14;113.35;;;33.92;;
49572;SDS011;35476;52.466;13.364;2023-02-15T07:28:39;109.60;;;40.37;;
49572;SDS011;35476;52.466;13.364;2023-02-15T07:31:04;120.40;;;37.53;;
49572;SDS011;35476;52.466;13.364;2023-02-15T07:33:30;103.70;;;38.97;;
49572;SDS011;35476;52.466;13.364;2023-02-15T07:35:56;91.10;;;36.08;;
49572;SDS011;35476;52.466;13.364;2023-02-15T07:38:26;74.82;;;34.13;;
49572;SDS011;35476;52.466;13.364;2023-02-15T07:40:56;80.13;;;35.47;;
49572;SDS011;35476;52.466;13.364;2023-02-15T07:43:22;99.60;;;36.00;;
49572;SDS011;35476;52.466;13.364;2023-02-15T07:45:47;82.78;;;34.72;;
49572;SDS011;35476;52.466;13.364;2023-02-15T07:48:12;71.63;;;32.50;;
49572;SDS011;35476;52.466;13.364;2023-02-15T07:50:37;90.03;;;35.90;;
49572;SDS011;35476;52.466;13.364;2023-02-15T07:53:03;97.17;;;32.70;;
49572;SDS011;35476;52.466;13.364;2023-02-15T07:55:28;93.53;;;31.23;;
49572;SDS011;35476;52.466;13.364;2023-02-15T07:57:53;81.28;;;31.52;;
49572;SDS011;35476;52.466;13.364;2023-02-15T08:00:19;78.78;;;31.48;;
49572;SDS011;35476;52.466;13.364;2023-02-15T08:02:48;89.18;;;30.35;;
49572;SDS011;35476;52.466;13.364;2023-02-15T08:05:34;79.13;;;32.30;;
49572;SDS011;35476;52.466;13.364;2023-02-15T08:07:59;105.87;;;31.10;;
49572;SDS011;35476;52.466;13.364;2023-02-15T08:10:24;79.53;;;32.07;;
49572;SDS011;35476;52.466;13.364;2023-02-15T08:13:09;80.80;;;32.03;;
49572;SDS011;35476;52.466;13.364;2023-02-15T08:15:34;67.20;;;35.10;;
49572;SDS011;35476;52.466;13.364;2023-02-15T08:17:59;77.17;;;33.53;;
49572;SDS011;35476;52.466;13.364;2023-02-15T08:20:25;72.17;;;32.30;;
49572;SDS011;35476;52.466;13.364;2023-02-15T08:22:50;71.65;;;32.85;;
49572;SDS011;35476;52.466;13.364;2023-02-15T08:25:15;82.93;;;33.47;;
49572;SDS011;35476;52.466;13.364;2023-02-15T08:27:40;84.25;;;32.95;;
49572;SDS011;35476;52.466;13.364;2023-02-15T08:30:06;75.17;;;32.33;;
49572;SDS011;35476;52.466;13.364;2023-02-15T08:32:31;68.97;;;31.65;;
49572;SDS011;35476;52.466;13.364;2023-02-15T08:34:56;72.37;;;32.57;;
49572;SDS011;35476;52.466;13.364;2023-02-15T08:37:22;88.63;;;32.67;;
49572;SDS011;35476;52.466;13.364;2023-02-15T08:39:47;64.93;;;31.27;;
49572;SDS011;35476;52.466;13.364;2023-02-15T08:42:12;63.73;;;30.00;;
49572;SDS011;35476;52.466;13.364;2023-02-15T08:44:37;62.83;;;31.17;;
49572;SDS011;35476;52.466;13.364;2023-02-15T08:47:02;66.17;;;32.63;;
49572;SDS011;35476;52.466;13.364;2023-02-15T08:49:28;62.65;;;31.23;;
49572;SDS011;35476;52.466;13.364;2023-02-15T08:51:53;63.83;;;34.67;;
49572;SDS011;35476;52.466;13.364;2023-02-15T08:54:19;58.17;;;33.03;;
49572;SDS011;35476;52.466;13.364;2023-02-15T08:56:44;66.18;;;31.35;;
49572;SDS011;35476;52.466;13.364;2023-02-15T08:59:15;62.03;;;30.45;;
49572;SDS011;35476;52.466;13.364;2023-02-15T09:01:41;53.63;;;30.13;;
49572;SDS011;35476;52.466;13.364;2023-02-15T09:04:06;57.67;;;32.85;;
49572;SDS011;35476;52.466;13.364;2023-02-15T09:06:34;49.85;;;31.42;;
49572;SDS011;35476;52.466;13.364;2023-02-15T09:09:00;52.50;;;30.85;;
49572;SDS011;35476;52.466;13.364;2023-02-15T09:11:26;48.92;;;29.30;;
49572;SDS011;35476;52.466;13.364;2023-02-15T09:13:59;51.28;;;30.65;;
49572;SDS011;35476;52.466;13.364;2023-02-15T09:16:25;47.80;;;29.42;;
49572;SDS011;35476;52.466;13.364;2023-02-15T09:18:51;49.70;;;30.58;;
49572;SDS011;35476;52.466;13.364;2023-02-15T09:21:20;41.88;;;28.02;;
49572;SDS011;35476;52.466;13.364;2023-02-15T09:23:46;42.47;;;27.73;;
49572;SDS011;35476;52.466;13.364;2023-02-15T09:26:12;45.63;;;28.73;;
49572;SDS011;35476;52.466;13.364;2023-02-15T09:28:38;43.05;;;29.17;;
49572;SDS011;35476;52.466;13.364;2023-02-15T09:31:04;49.83;;;29.48;;
49572;SDS011;35476;52.466;13.364;2023-02-15T09:33:29;40.42;;;27.52;;
49572;SDS011;35476;52.466;13.364;2023-02-15T09:35:54;42.47;;;27.30;;
49572;SDS011;35476;52.466;13.364;2023-02-15T09:38:21;41.25;;;27.17;;
49572;SDS011;35476;52.466;13.364;2023-02-15T09:40:49;43.27;;;27.43;;
49572;SDS011;35476;52.466;13.364;2023-02-15T09:43:24;41.13;;;26.33;;
49572;SDS011;35476;52.466;13.364;2023-02-15T09:45:56;39.15;;;25.85;;
49572;SDS011;35476;52.466;13.364;2023-02-15T09:48:38;36.25;;;25.95;;
49572;SDS011;35476;52.466;13.364;2023-02-15T09:51:08;50.45;;;27.08;;
49572;SDS011;35476;52.466;13.364;2023-02-15T09:56:38;35.22;;;23.88;;
49572;SDS011;35476;52.466;13.364;2023-02-15T10:01:48;39.15;;;26.45;;
49572;SDS011;35476;52.466;13.364;2023-02-15T10:20:00;32.53;;;24.07;;
49572;SDS011;35476;52.466;13.364;2023-02-15T10:27:46;34.05;;;25.50;;
49572;SDS011;35476;52.466;13.364;2023-02-15T10:30:20;32.15;;;24.58;;
49572;SDS011;35476;52.466;13.364;2023-02-15T10:33:13;31.58;;;23.48;;
49572;SDS011;35476;52.466;13.364;2023-02-15T10:35:45;36.45;;;23.95;;
49572;SDS011;35476;52.466;13.364;2023-02-15T10:46:08;32.33;;;24.50;;
49572;SDS011;35476;52.466;13.364;2023-02-15T10:54:02;32.05;;;24.05;;
49572;SDS011;35476;52.466;13.364;2023-02-15T11:06:29;31.33;;;22.37;;
49572;SDS011;35476;52.466;13.364;2023-02-15T11:09:02;28.42;;;23.65;;
49572;SDS011;35476;52.466;13.364;2023-02-15T11:11:29;34.72;;;23.58;;
49572;SDS011;35476;52.466;13.364;2023-02-15T11:13:57;30.50;;;25.60;;
49572;SDS011;35476;52.466;13.364;2023-02-15T11:18:51;28.20;;;23.40;;
49572;SDS011;35476;52.466;13.364;2023-02-15T11:21:26;24.75;;;21.98;;
49572;SDS011;35476;52.466;13.364;2023-02-15T11:23:52;24.83;;;20.63;;
49572;SDS011;35476;52.466;13.364;2023-02-15T11:26:28;24.85;;;20.98;;
49572;SDS011;35476;52.466;13.364;2023-02-15T11:31:26;26.77;;;20.70;;
49572;SDS011;35476;52.466;13.364;2023-02-15T11:34:04;28.08;;;22.90;;
49572;SDS011;35476;52.466;13.364;2023-02-15T11:36:33;26.58;;;21.67;;
49572;SDS011;35476;52.466;13.364;2023-02-15T11:39:02;25.75;;;22.13;;
49572;SDS011;35476;52.466;13.364;2023-02-15T11:41:29;24.60;;;19.65;;
49572;SDS011;35476;52.466;13.364;2023-02-15T11:43:58;24.13;;;19.20;;
49572;SDS011;35476;52.466;13.364;2023-02-15T11:46:25;22.23;;;18.50;;
49572;SDS011;35476;52.466;13.364;2023-02-15T11:48:51;25.60;;;20.10;;
49572;SDS011;35476;52.466;13.364;2023-02-15T11:51:20;23.02;;;19.52;;
49572;SDS011;35476;52.466;13.364;2023-02-15T11:53:46;24.70;;;20.30;;
49572;SDS011;35476;52.466;13.364;2023-02-15T11:56:24;24.20;;;20.08;;
49572;SDS011;35476;52.466;13.364;2023-02-15T12:01:47;24.45;;;20.30;;
49572;SDS011;35476;52.466;13.364;2023-02-15T12:04:18;24.23;;;18.87;;
49572;SDS011;35476;52.466;13.364;2023-02-15T12:09:17;21.30;;;18.92;;
49572;SDS011;35476;52.466;13.364;2023-02-15T12:11:44;22.10;;;18.67;;
49572;SDS011;35476;52.466;13.364;2023-02-15T12:14:10;24.70;;;18.60;;
49572;SDS011;35476;52.466;13.364;2023-02-15T12:16:40;18.92;;;16.75;;
49572;SDS011;35476;52.466;13.364;2023-02-15T12:19:09;19.55;;;17.45;;
49572;SDS011;35476;52.466;13.364;2023-02-15T12:21:41;22.48;;;15.23;;
49572;SDS011;35476;52.466;13.364;2023-02-15T12:24:14;18.80;;;16.77;;
49572;SDS011;35476;52.466;13.364;2023-02-15T12:26:42;19.38;;;16.65;;
49572;SDS011;35476;52.466;13.364;2023-02-15T12:29:12;19.05;;;16.58;;
49572;SDS011;35476;52.466;13.364;2023-02-15T12:31:40;16.80;;;15.05;;
49572;SDS011;35476;52.466;13.364;2023-02-15T12:34:11;18.88;;;15.10;;
49572;SDS011;35476;52.466;13.364;2023-02-15T12:36:44;16.77;;;14.98;;
49572;SDS011;35476;52.466;13.364;2023-02-15T12:41:37;19.10;;;15.33;;
49572;SDS011;35476;52.466;13.364;2023-02-15T12:46:39;19.45;;;15.10;;
49572;SDS011;35476;52.466;13.364;2023-02-15T12:54:25;19.30;;;16.90;;
49572;SDS011;35476;52.466;13.364;2023-02-15T12:56:52;18.52;;;16.33;;
49572;SDS011;35476;52.466;13.364;2023-02-15T12:59:18;20.83;;;16.20;;
49572;SDS011;35476;52.466;13.364;2023-02-15T13:01:45;18.83;;;15.35;;
49572;SDS011;35476;52.466;13.364;2023-02-15T13:04:21;16.92;;;15.13;;
49572;SDS011;35476;52.466;13.364;2023-02-15T13:06:47;21.73;;;18.85;;
49572;SDS011;35476;52.466;13.364;2023-02-15T13:09:35;23.90;;;21.30;;
49572;SDS011;35476;52.466;13.364;2023-02-15T13:12:35;23.27;;;19.73;;
49572;SDS011;35476;52.466;13.364;2023-02-15T13:14:56;19.20;;;16.90;;
49572;SDS011;35476;52.466;13.364;2023-02-15T13:17:31;19.73;;;16.38;;
49572;SDS011;35476;52.466;13.364;2023-02-15T13:19:58;16.75;;;14.95;;
49572;SDS011;35476;52.466;13.364;2023-02-15T13:22:32;19.30;;;15.45;;
49572;SDS011;35476;52.466;13.364;2023-02-15T13:24:59;18.75;;;15.38;;
49572;SDS011;35476;52.466;13.364;2023-02-15T13:27:33;18.92;;;16.88;;
49572;SDS011;35476;52.466;13.364;2023-02-15T13:30:02;21.65;;;16.70;;
49572;SDS011;35476;52.466;13.364;2023-02-15T13:32:36;21.08;;;17.15;;
49572;SDS011;35476;52.466;13.364;2023-02-15T13:35:03;15.80;;;14.02;;
49572;SDS011;35476;52.466;13.364;2023-02-15T13:42:41;24.70;;;21.10;;
49572;SDS011;35476;52.466;13.364;2023-02-15T13:52:26;16.90;;;14.13;;
49572;SDS011;35476;52.466;13.364;2023-02-15T13:54:56;15.07;;;13.52;;
49572;SDS011;35476;52.466;13.364;2023-02-15T14:10:36;16.45;;;13.43;;
49572;SDS011;35476;52.466;13.364;2023-02-15T14:15:49;15.20;;;12.48;;
49572;SDS011;35476;52.466;13.364;2023-02-15T14:18:35;15.55;;;13.02;;
49572;SDS011;35476;52.466;13.364;2023-02-15T14:21:06;17.50;;;13.10;;
49572;SDS011;35476;52.466;13.364;2023-02-15T14:26:06;14.48;;;12.90;;
49572;SDS011;35476;52.466;13.364;2023-02-15T14:28:38;17.20;;;13.10;;
49572;SDS011;35476;52.466;13.364;2023-02-15T14:31:06;16.35;;;13.73;;
49572;SDS011;35476;52.466;13.364;2023-02-15T14:33:35;16.90;;;13.77;;
49572;SDS011;35476;52.466;13.364;2023-02-15T14:36:03;15.98;;;13.82;;
49572;SDS011;35476;52.466;13.364;2023-02-15T14:41:13;17.15;;;13.07;;
49572;SDS011;35476;52.466;13.364;2023-02-15T14:46:16;18.23;;;14.23;;
49572;SDS011;35476;52.466;13.364;2023-02-15T14:48:45;20.13;;;13.85;;
49572;SDS011;35476;52.466;13.364;2023-02-15T14:51:38;17.60;;;12.93;;
49572;SDS011;35476;52.466;13.364;2023-02-15T14:53:56;19.13;;;13.43;;
49572;SDS011;35476;52.466;13.364;2023-02-15T14:56:22;19.63;;;14.53;;
49572;SDS011;35476;52.466;13.364;2023-02-15T15:03:51;17.67;;;13.13;;
49572;SDS011;35476;52.466;13.364;2023-02-15T15:06:37;18.20;;;13.93;;
49572;SDS011;35476;52.466;13.364;2023-02-15T15:11:45;17.52;;;12.98;;
49572;SDS011;35476;52.466;13.364;2023-02-15T15:14:36;17.25;;;13.57;;
49572;SDS011;35476;52.466;13.364;2023-02-15T15:16:56;18.17;;;13.30;;
49572;SDS011;35476;52.466;13.364;2023-02-15T15:22:22;20.02;;;13.13;;
49572;SDS011;35476;52.466;13.364;2023-02-15T15:24:49;18.77;;;12.55;;
49572;SDS011;35476;52.466;13.364;2023-02-15T15:29:59;14.50;;;11.23;;
49572;SDS011;35476;52.466;13.364;2023-02-15T15:32:26;15.82;;;12.07;;
49572;SDS011;35476;52.466;13.364;2023-02-15T15:35:01;17.63;;;10.68;;
49572;SDS011;35476;52.466;13.364;2023-02-15T15:50:11;16.73;;;9.98;;
49572;SDS011;35476;52.466;13.364;2023-02-15T15:52:37;11.63;;;9.90;;
49572;SDS011;35476;52.466;13.364;2023-02-15T15:55:05;11.90;;;9.27;;
49572;SDS011;35476;52.466;13.364;2023-02-15T15:57:39;14.70;;;9.57;;
49572;SDS011;35476;52.466;13.364;2023-02-15T16:00:22;15.20;;;10.23;;
49572;SDS011;35476;52.466;13.364;2023-02-15T16:02:52;12.90;;;9.37;;
49572;SDS011;35476;52.466;13.364;2023-02-15T16:05:18;15.13;;;10.65;;
49572;SDS011;35476;52.466;13.364;2023-02-15T16:07:43;16.83;;;10.52;;
49572;SDS011;35476;52.466;13.364;2023-02-15T16:10:19;14.70;;;9.73;;
49572;SDS011;35476;52.466;13.364;2023-02-15T16:12:46;15.95;;;11.23;;
49572;SDS011;35476;52.466;13.364;2023-02-15T16:15:16;16.70;;;10.93;;
49572;SDS011;35476;52.466;13.364;2023-02-15T16:17:47;13.15;;;10.68;;
49572;SDS011;35476;52.466;13.364;2023-02-15T16:20:33;14.85;;;10.05;;
49572;SDS011;35476;52.466;13.364;2023-02-15T16:26:13;12.95;;;9.85;;
49572;SDS011;35476;52.466;13.364;2023-02-15T16:28:15;16.85;;;9.90;;
49572;SDS011;35476;52.466;13.364;2023-02-15T16:30:43;12.23;;;9.43;;
49572;SDS011;35476;52.466;13.364;2023-02-15T16:35:35;11.57;;;9.40;;
49572;SDS011;35476;52.466;13.364;2023-02-15T16:38:01;15.77;;;10.52;;
49572;SDS011;35476;52.466;13.364;2023-02-15T16:40:27;14.40;;;10.82;;
49572;SDS011;35476;52.466;13.364;2023-02-15T16:42:54;13.63;;;9.70;;
49572;SDS011;35476;52.466;13.364;2023-02-15T16:45:21;15.93;;;10.70;;
49572;SDS011;35476;52.466;13.364;2023-02-15T16:47:48;17.25;;;9.55;;
49572;SDS011;35476;52.466;13.364;2023-02-15T16:50:19;18.10;;;10.15;;
49572;SDS011;35476;52.466;13.364;2023-02-15T16:52:44;15.07;;;9.57;;
49572;SDS011;35476;52.466;13.364;2023-02-15T16:55:16;14.45;;;8.55;;
49572;SDS011;35476;52.466;13.364;2023-02-15T16:57:44;24.77;;;13.32;;
49572;SDS011;35476;52.466;13.364;2023-02-15T17:00:19;16.35;;;10.60;;